Time;durP1;ratioP1;P1;durP2;ratioP2;P2;SDS_P1;SDS_P2;PMS_P1;PMS_P2;Temp;Humidity;BMP_temperature;BMP_pressure;BME280_temperature;BME280_humidity;BME280_pressure;Samples;Min_cycle;Max_cycle;Signal;HPM_P1;HPM_P2
2023/06/05 00:01:40;;;;;;;;;;;;;;;14.76;74.87;102234.63;5090467;28;20063;-37
2023/06/05 00:04:05;;;;;;;4.33;1.70;;;;;;;14.56;77.55;102234.81;5089972;28;19912;-37
2023/06/05 00:06:31;;;;;;;3.92;1.70;;;;;;;14.59;77.33;102242.53;5089956;28;20263;-37
2023/06/05 00:08:56;;;;;;;;;;;;;;;14.71;74.61;102242.63;5090270;28;20465;-37
2023/06/05 00:11:21;;;;;;;3.08;1.65;;;;;;;14.57;76.88;102234.59;5082152;28;19912;-37
2023/06/05 00:13:47;;;;;;;4.15;2.10;;;;;;;14.33;78.28;102235.41;5076356;28;20057;-37
2023/06/05 00:16:12;;;;;;;;;;;;;;;14.55;76.49;102234.00;5076721;28;20025;-37
2023/06/05 00:18:38;;;;;;;3.58;1.98;;;;;;;14.34;78.62;102242.50;5076155;28;20287;-37
2023/06/05 00:21:03;;;;;;;;;;;;;;;14.44;77.23;102245.56;5076730;28;20028;-37
2023/06/05 00:23:29;;;;;;;4.35;1.67;;;;;;;14.11;79.66;102233.06;5075815;28;19908;-37
2023/06/05 00:25:55;;;;;;;;;;;;;;;14.36;76.30;102235.78;5076321;28;20025;-37
2023/06/05 00:28:20;;;;;;;3.28;2.05;;;;;;;14.08;79.72;102233.50;5076015;28;19908;-37
2023/06/05 00:30:45;;;;;;;;;;;;;;;14.27;77.51;102237.13;5076991;28;20032;-37
2023/06/05 00:33:11;;;;;;;4.57;1.83;;;;;;;14.03;80.25;102238.78;5075683;28;20357;-37
2023/06/05 00:35:36;;;;;;;4.55;1.90;;;;;;;13.98;80.56;102227.72;5075631;28;20082;-37
2023/06/05 00:38:02;;;;;;;;;;;;;;;14.22;77.34;102244.28;5076599;28;20028;-37
2023/06/05 00:40:27;;;;;;;3.80;2.10;;;;;;;13.88;81.75;102249.97;5076002;28;19912;-37
2023/06/05 00:42:52;;;;;;;5.43;2.20;;;;;;;13.82;81.76;102237.25;5075768;28;20119;-37
2023/06/05 00:45:18;;;;;;;;;;;;;;;13.89;79.14;102235.31;5076786;28;20028;-37
2023/06/05 00:47:43;;;;;;;4.88;1.85;;;;;;;13.68;82.62;102237.53;5075687;28;19958;-37
2023/06/05 00:50:11;;;;;;;;;;;;;;;13.87;79.19;102242.03;5076347;28;20040;-37
2023/06/05 00:52:37;;;;;;;3.22;1.80;;;;;;;13.61;82.88;102230.22;5091697;28;20310;-37
2023/06/05 00:55:02;;;;;;;;;;;;;;;13.84;79.42;102242.44;5076233;28;20028;-37
2023/06/05 00:57:28;;;;;;;5.10;2.20;;;;;;;13.73;82.38;102240.44;5076075;28;19912;-37
2023/06/05 00:59:54;;;;;;;4.53;2.20;;;;;;;13.62;83.14;102245.53;5075064;28;20503;-37
2023/06/05 01:02:20;;;;;;;3.17;2.20;;;;;;;13.67;81.87;102238.59;5075108;28;20036;-37
2023/06/05 01:04:46;;;;;;;5.68;2.28;;;;;;;13.66;83.33;102237.75;5076099;28;20123;-37
2023/06/05 01:07:13;;;;;;;;;;;;;;;13.83;79.92;102236.19;5075676;28;20476;-37
2023/06/05 01:09:39;;;;;;;5.43;2.60;;;;;;;13.57;83.53;102234.47;5075729;28;20011;-37
2023/06/05 01:12:10;;;;;;;2.92;2.20;;;;;;;13.59;83.72;102235.06;5075482;28;20438;-37
2023/06/05 01:14:38;;;;;;;6.13;2.65;;;;;;;13.54;83.90;102231.34;5075463;28;20028;-37
2023/06/05 01:17:08;;;;;;;4.05;2.22;;;;;;;13.48;83.76;102230.31;5075903;28;20037;-37
2023/06/05 01:19:33;;;;;;;5.88;2.70;;;;;;;13.39;84.86;102228.91;5075524;28;20029;-37
2023/06/05 01:21:59;;;;;;;;;;;;;;;13.61;81.22;102234.84;5075926;28;20028;-37
2023/06/05 01:24:27;;;;;;;4.25;2.20;;;;;;;13.35;85.01;102225.78;5074846;28;19947;-37
2023/06/05 01:27:00;;;;;;;6.93;3.03;;;;;;;13.39;84.74;102223.47;5074902;28;20028;-37
2023/06/05 01:29:52;;;;;;;3.33;2.40;;;;;;;13.27;84.83;102226.00;5075363;28;20389;-37
2023/06/05 01:32:44;;;;;;;4.38;2.50;;;;;;;13.28;84.72;102224.16;5075035;28;20115;-37
2023/06/05 01:35:17;;;;;;;3.72;2.15;;;;;;;13.26;85.76;102218.09;5075287;28;20020;-37
2023/06/05 01:37:48;;;;;;;4.05;2.70;;;;;;;13.17;86.44;102227.47;5074509;28;20029;-37
2023/06/05 01:40:16;;;;;;;4.65;2.55;;;;;;;13.09;86.75;102212.28;5075357;28;20476;-37
2023/06/05 01:42:43;;;;;;;4.53;2.50;;;;;;;13.18;86.88;102232.72;5074897;28;20033;-37
2023/06/05 01:45:10;;;;;;;4.47;2.42;;;;;;;13.17;85.99;102228.31;5074496;28;20048;-37
2023/06/05 01:47:37;;;;;;;6.32;2.70;;;;;;;12.94;87.33;102215.25;5075012;28;20074;-37
2023/06/05 01:50:03;;;;;;;4.20;2.75;;;;;;;12.95;87.95;102222.34;5075121;28;20067;-37
2023/06/05 01:52:28;;;;;;;6.53;2.90;;;;;;;12.87;88.41;102222.56;5074647;28;20028;-37
2023/06/05 01:54:54;;;;;;;;;;;;;;;13.10;84.52;102205.78;5075609;28;20021;-37
2023/06/05 01:57:20;;;;;;;4.88;3.10;;;;;;;12.92;87.99;102211.91;5074297;28;19951;-37
2023/06/05 01:59:46;;;;;;;3.47;2.40;;;;;;;12.95;88.42;102208.78;5073777;28;20497;-37
2023/06/05 02:02:13;;;;;;;;;;;;;;;13.07;84.72;102208.94;5074359;28;20040;-37
2023/06/05 02:04:38;;;;;;;3.90;2.50;;;;;;;12.89;87.80;102206.91;5073875;28;19912;-37
2023/06/05 02:07:05;;;;;;;4.60;2.40;;;;;;;12.82;88.40;102204.19;5074166;28;20492;-37
2023/06/05 02:09:33;;;;;;;4.55;2.58;;;;;;;12.61;89.20;102197.16;5074013;28;20047;-37
2023/06/05 02:12:03;;;;;;;3.85;2.33;;;;;;;12.74;89.77;102203.63;5074097;28;20028;-37
2023/06/05 02:14:31;;;;;;;4.70;2.92;;;;;;;12.62;89.29;102206.97;5074604;28;20107;-37
2023/06/05 02:16:58;;;;;;;4.45;3.08;;;;;;;12.42;90.34;102195.31;5073985;28;20024;-37
2023/06/05 02:19:24;;;;;;;4.95;3.00;;;;;;;12.44;90.97;102197.78;5073845;28;20039;-37
2023/06/05 02:21:51;;;;;;;3.35;2.83;;;;;;;12.48;91.28;102199.88;5073516;28;20024;-37
2023/06/05 02:24:18;;;;;;;7.32;2.95;;;;;;;12.50;90.32;102196.97;5074382;28;20028;-37
2023/06/05 02:26:44;;;;;;;3.67;2.72;;;;;;;12.40;91.27;102189.25;5074373;28;20040;-37
2023/06/05 02:29:09;;;;;;;4.55;2.90;;;;;;;12.46;91.33;102198.44;5073789;28;20465;-37
2023/06/05 02:31:36;;;;;;;;;;;;;;;12.67;87.47;102202.78;5074554;28;20028;-37
2023/06/05 02:34:02;;;;;;;5.63;3.30;;;;;;;12.57;90.65;102197.78;5074622;28;19908;-36
2023/06/05 02:36:32;;;;;;;;;;;;;;;12.63;87.17;102191.50;5074222;28;20032;-36
2023/06/05 02:39:01;;;;;;;4.65;2.95;;;;;;;12.39;91.16;102201.13;5073620;28;19916;-37
2023/06/05 02:41:27;;;;;;;3.78;2.63;;;;;;;12.35;91.96;102184.47;5073980;28;20465;-37
2023/06/05 02:43:56;;;;;;;4.90;3.20;;;;;;;12.30;90.30;102184.28;5073638;28;20056;-37
2023/06/05 02:46:24;;;;;;;5.82;3.33;;;;;;;12.13;93.34;102184.88;5073391;28;20059;-37
2023/06/05 02:48:50;;;;;;;5.05;3.20;;;;;;;12.17;93.92;102199.69;5073784;28;20086;-37
2023/06/05 02:51:15;;;;;;;4.15;3.15;;;;;;;12.17;93.42;102183.44;5074123;28;20028;-37
2023/06/05 02:53:40;;;;;;;4.23;3.23;;;;;;;12.13;93.58;102187.59;5073507;28;20107;-37
2023/06/05 02:56:06;;;;;;;4.03;3.43;;;;;;;12.11;94.13;102185.09;5073849;28;20247;-37
2023/06/05 02:58:33;;;;;;;4.53;3.22;;;;;;;12.09;93.71;102174.44;5073470;28;20032;-37
2023/06/05 03:01:01;;;;;;;5.75;3.75;;;;;;;12.04;93.48;102171.53;5074048;28;20052;-37
2023/06/05 03:03:39;;;;;;;4.85;3.85;;;;;;;12.08;94.00;102183.63;5074234;28;20077;-37
2023/06/05 03:06:04;;;;;;;5.88;3.25;;;;;;;11.88;94.85;102171.94;5073629;28;20485;-37
2023/06/05 03:08:34;;;;;;;5.00;3.42;;;;;;;12.04;94.95;102190.50;5073116;28;20032;-37
2023/06/05 03:11:04;;;;;;;5.13;3.33;;;;;;;11.95;95.16;102194.47;5073432;28;20063;-37
2023/06/05 03:13:30;;;;;;;5.30;3.58;;;;;;;11.99;95.66;102197.59;5073856;28;20103;-37
2023/06/05 03:16:01;;;;;;;5.72;3.58;;;;;;;11.90;94.35;102180.69;5073630;28;20037;-37
2023/06/05 03:18:27;;;;;;;4.95;3.75;;;;;;;11.78;95.82;102177.75;5073019;28;20024;-37
2023/06/05 03:20:56;;;;;;;4.68;3.95;;;;;;;11.90;95.81;102190.72;5073501;28;20025;-37
2023/06/05 03:23:30;;;;;;;4.63;3.58;;;;;;;11.89;96.07;102184.44;5073169;28;20020;-37
2023/06/05 03:25:56;;;;;;;5.35;4.05;;;;;;;11.74;97.15;102186.50;5073730;28;20032;-37
2023/06/05 03:28:23;;;;;;;5.80;4.00;;;;;;;11.72;96.67;102177.75;5073979;28;20024;-37
2023/06/05 03:30:59;;;;;;;4.57;3.90;;;;;;;11.65;98.25;102177.72;5073469;28;20063;-37
2023/06/05 03:33:24;;;;;;;5.60;3.50;;;;;;;11.63;98.04;102173.56;5072913;28;20468;-37
2023/06/05 03:35:49;;;;;;;4.57;3.67;;;;;;;11.51;98.73;102151.63;5073135;28;20025;-37
2023/06/05 03:38:24;;;;;;;6.00;4.13;;;;;;;11.62;98.97;102171.91;5073423;28;20032;-37
2023/06/05 03:40:49;;;;;;;6.63;4.63;;;;;;;11.66;98.29;102163.13;5071437;28;20421;-37
2023/06/05 03:43:15;;;;;;;6.10;4.07;;;;;;;11.65;98.53;102166.03;5073310;28;20057;-37
2023/06/05 03:45:40;;;;;;;;;;;;;;;11.84;94.88;102176.13;5074025;28;20259;-37
2023/06/05 03:48:06;;;;;;;7.93;4.37;;;;;;;11.59;98.32;102173.13;5076815;28;19916;-37
2023/06/05 03:50:33;;;;;;;6.32;4.13;;;;;;;11.63;97.94;102163.56;5077589;28;20699;-37
2023/06/05 03:53:02;;;;;;;5.40;4.15;;;;;;;11.70;98.42;102168.97;5076914;28;20119;-37
2023/06/05 03:55:40;;;;;;;6.57;4.40;;;;;;;11.74;97.99;102164.81;5076648;28;20488;-37
2023/06/05 03:58:13;;;;;;;7.10;4.75;;;;;;;11.63;97.55;102168.97;5076881;28;20094;-37
2023/06/05 04:00:42;;;;;;;6.28;4.63;;;;;;;11.59;98.61;102171.25;5076482;28;20045;-37
2023/06/05 04:03:09;;;;;;;6.03;4.18;;;;;;;11.56;99.35;102173.53;5076816;28;20028;-37
2023/06/05 04:05:35;;;;;;;4.85;3.97;;;;;;;11.71;98.33;102176.06;5076459;28;20031;-37
2023/06/05 04:08:00;;;;;;;;;;;;;;;11.84;95.83;102178.81;5077143;28;20373;-37
2023/06/05 04:10:25;;;;;;;5.30;4.40;;;;;;;11.65;99.07;102171.47;5076669;28;19912;-37
2023/06/05 04:12:51;;;;;;;6.27;4.47;;;;;;;11.54;99.03;102173.75;5076099;28;20420;-37
2023/06/05 04:15:16;;;;;;;6.03;4.40;;;;;;;11.52;100.00;102175.84;5076438;28;20262;-37
2023/06/05 04:17:41;;;;;;;4.85;4.15;;;;;;;11.44;100.00;102170.59;5077109;28;20111;-37
2023/06/05 04:20:14;;;;;;;6.72;4.65;;;;;;;11.43;100.00;102163.50;5076459;28;20041;-37
2023/06/05 04:22:40;;;;;;;7.50;5.13;;;;;;;11.60;100.00;102169.38;5076418;28;20468;-37
2023/06/05 04:25:06;;;;;;;5.38;4.38;;;;;;;11.64;100.00;102172.50;5076403;28;20025;-37
2023/06/05 04:27:31;;;;;;;6.22;4.63;;;;;;;11.58;99.55;102169.59;5076365;28;20051;-37
2023/06/05 04:29:56;;;;;;;6.17;4.77;;;;;;;11.74;100.00;102170.22;5076078;28;20457;-38
2023/06/05 04:32:22;;;;;;;6.45;4.22;;;;;;;11.85;98.95;102183.19;5076292;28;20517;-37
2023/06/05 04:34:47;;;;;;;4.90;4.50;;;;;;;11.92;97.88;102188.63;5076464;28;20373;-37
2023/06/05 04:37:13;;;;;;;5.13;4.63;;;;;;;11.82;99.06;102189.06;5076235;28;20419;-37
2023/06/05 04:39:38;;;;;;;7.68;5.10;;;;;;;11.92;97.93;102188.63;5075764;28;20036;-37
2023/06/05 04:42:04;;;;;;;6.35;4.97;;;;;;;11.96;98.51;102185.31;5076415;28;20381;-37
2023/06/05 04:44:30;;;;;;;7.05;5.38;;;;;;;11.89;98.39;102179.03;5075518;28;20384;-37
2023/06/05 04:46:56;;;;;;;;;;;;;;;12.14;96.99;102187.38;5076125;28;20061;-36
2023/06/05 04:49:22;;;;;;;5.97;5.00;;;;;;;12.05;98.58;102189.50;5075665;28;20003;-37
2023/06/05 04:51:48;;;;;;;6.03;5.25;;;;;;;12.14;96.38;102186.56;5075629;28;20385;-37
2023/06/05 04:54:13;;;;;;;6.28;5.07;;;;;;;12.01;98.22;102182.81;5075333;28;20025;-37
2023/06/05 04:56:39;;;;;;;5.68;5.07;;;;;;;12.10;99.32;102180.69;5075764;28;20025;-36
2023/06/05 04:59:04;;;;;;;6.85;5.05;;;;;;;12.23;98.78;102190.72;5075378;28;20029;-37
2023/06/05 05:01:30;;;;;;;6.43;5.32;;;;;;;12.17;97.82;102186.97;5076139;28;20052;-37
2023/06/05 05:03:56;;;;;;;6.03;5.40;;;;;;;12.05;98.85;102188.63;5076211;28;20032;-36
2023/06/05 05:06:21;;;;;;;7.45;5.72;;;;;;;12.01;98.98;102184.69;5075987;28;20032;-36
2023/06/05 05:08:50;;;;;;;6.63;5.07;;;;;;;12.29;98.63;102192.59;5075331;28;20138;-36
2023/06/05 05:11:17;;;;;;;7.82;5.38;;;;;;;12.23;97.80;102193.44;5075763;28;20025;-37
2023/06/05 05:13:43;;;;;;;7.55;5.60;;;;;;;12.30;97.58;102197.00;5075458;28;20060;-36
2023/06/05 05:16:09;;;;;;;8.98;5.93;;;;;;;12.40;98.60;102191.16;5075700;28;20032;-37
2023/06/05 05:18:36;;;;;;;6.35;5.75;;;;;;;12.32;98.01;102190.31;5075091;28;20495;-37
2023/06/05 05:21:02;;;;;;;6.43;5.65;;;;;;;12.38;97.98;102188.63;5075257;28;20029;-37
2023/06/05 05:23:28;;;;;;;7.00;5.93;;;;;;;12.49;98.20;102188.00;5074886;28;20036;-37
2023/06/05 05:25:54;;;;;;;6.90;6.22;;;;;;;12.48;97.31;102180.06;5074935;28;20074;-37
2023/06/05 05:28:19;;;;;;;6.32;5.50;;;;;;;12.59;96.60;102196.53;5074585;28;20063;-36
2023/06/05 05:30:45;;;;;;;8.15;6.13;;;;;;;12.65;96.59;102194.03;5075691;28;20029;-36
2023/06/05 05:33:10;;;;;;;7.63;5.85;;;;;;;12.58;96.72;102173.16;5074812;28;20487;-36
2023/06/05 05:35:36;;;;;;;;;;;;;;;12.79;95.15;102184.81;5075754;28;20054;-36
2023/06/05 05:38:01;;;;;;;7.00;6.20;;;;;;;12.77;94.07;102178.75;5074437;28;19908;-36
2023/06/05 05:40:26;;;;;;;11.13;6.20;;;;;;;12.84;95.65;102176.88;5074561;28;20758;-36
2023/06/05 05:42:52;;;;;;;6.93;5.40;;;;;;;13.01;94.42;102199.75;5074336;28;20328;-36
2023/06/05 05:45:17;;;;;;;6.88;6.05;;;;;;;13.01;93.50;102191.63;5075093;28;20052;-36
2023/06/05 05:47:42;;;;;;;7.38;5.85;;;;;;;13.05;92.58;102179.28;5075098;28;20039;-36
2023/06/05 05:50:08;;;;;;;;;;;;;;;13.27;91.91;102195.28;5074910;28;20472;-37
2023/06/05 05:52:33;;;;;;;7.05;5.97;;;;;;;13.20;91.26;102197.19;5074424;28;19908;-37
2023/06/05 05:54:59;;;;;;;6.43;5.83;;;;;;;13.06;92.10;102175.50;5074958;28;20028;-36
2023/06/05 05:57:27;;;;;;;;;;;;;;;13.45;91.71;102194.59;5074773;28;20032;-36
2023/06/05 05:59:53;;;;;;;7.03;5.90;;;;;;;13.37;91.27;102193.81;5074486;28;19927;-36
2023/06/05 06:02:18;;;;;;;;;;;;;;;13.62;90.70;102191.16;5074683;28;20465;-36
2023/06/05 06:04:43;;;;;;;6.50;5.80;;;;;;;13.51;89.39;102183.69;5074113;28;20344;-36
2023/06/05 06:07:09;;;;;;;8.05;5.97;;;;;;;13.53;89.16;102203.34;5074247;28;20032;-36
2023/06/05 06:09:35;;;;;;;;;;;;;;;13.81;89.25;102202.97;5073734;28;20523;-36
2023/06/05 06:12:05;;;;;;;5.32;4.82;;;;;;;13.80;88.26;102206.72;5074383;28;19912;-36
2023/06/05 06:14:31;;;;;;;7.85;5.63;;;;;;;13.78;87.82;102199.84;5074278;28;20077;-36
2023/06/05 06:16:57;;;;;;;;;;;;;;;14.03;87.78;102208.84;5074963;28;20024;-36
2023/06/05 06:19:23;;;;;;;8.25;5.65;;;;;;;13.92;87.14;102215.00;5074431;28;19970;-36
2023/06/05 06:21:51;;;;;;;;;;;;;;;13.98;86.84;102205.97;5074311;28;20105;-37
2023/06/05 06:24:19;;;;;;;7.15;6.00;;;;;;;13.89;86.69;102212.72;5074121;28;19998;-36
2023/06/05 06:26:45;;;;;;;6.63;5.85;;;;;;;13.90;86.14;102212.50;5074147;28;20032;-37
2023/06/05 06:29:10;;;;;;;;;;;;;;;13.91;85.02;102216.91;5074225;28;20032;-36
2023/06/05 06:31:36;;;;;;;6.87;5.73;;;;;;;13.79;85.07;102206.94;5073812;28;19908;-36
2023/06/05 06:34:01;;;;;;;6.50;5.05;;;;;;;13.83;86.07;102202.72;5073693;28;20267;-37
2023/06/05 06:36:27;;;;;;;8.27;5.65;;;;;;;14.00;84.64;102208.44;5074564;28;20099;-36
2023/06/05 06:38:52;;;;;;;8.48;5.05;;;;;;;14.09;84.62;102215.28;5073862;28;20090;-36
2023/06/05 06:41:18;;;;;;;9.40;5.18;;;;;;;14.08;84.44;102208.19;5073918;28;20025;-36
2023/06/05 06:43:43;;;;;;;5.97;5.25;;;;;;;14.25;84.40;102213.91;5073658;28;20525;-37
2023/06/05 06:46:08;;;;;;;;;;;;;;;14.46;84.01;102208.09;5074069;28;20029;-36
2023/06/05 06:48:34;;;;;;;7.82;5.30;;;;;;;14.37;82.80;102218.41;5074368;28;19962;-36
2023/06/05 06:51:00;;;;;;;6.10;5.28;;;;;;;14.45;81.74;102208.31;5073571;28;20044;-36
2023/06/05 06:53:25;;;;;;;5.45;4.95;;;;;;;14.37;82.50;102204.81;5074071;28;20024;-36
2023/06/05 06:55:51;;;;;;;6.32;5.20;;;;;;;14.57;81.98;102214.72;5074182;28;20029;-37
2023/06/05 06:58:17;;;;;;;7.35;5.60;;;;;;;14.38;81.08;102216.53;5073435;28;20385;-36
2023/06/05 07:00:43;;;;;;;9.57;5.15;;;;;;;14.61;82.51;102222.19;5073552;28;20063;-36
2023/06/05 07:03:08;;;;;;;;;;;;;;;14.85;81.04;102217.78;5074054;28;20029;-36
2023/06/05 07:05:33;;;;;;;6.13;4.60;;;;;;;14.73;81.14;102226.91;5073667;28;19912;-36
2023/06/05 07:08:01;;;;;;;8.25;5.18;;;;;;;14.77;80.14;102228.13;5073380;28;20332;-36
2023/06/05 07:10:28;;;;;;;5.45;4.53;;;;;;;14.89;79.01;102226.31;5073032;28;20536;-36
2023/06/05 07:12:54;;;;;;;6.85;4.97;;;;;;;14.86;78.30;102218.59;5073310;28;20060;-36
2023/06/05 07:15:19;;;;;;;;;;;;;;;15.06;78.95;102226.53;5073802;28;20107;-36
2023/06/05 07:17:45;;;;;;;5.72;4.97;;;;;;;14.90;78.69;102220.66;5073535;28;19919;-36
2023/06/05 07:20:10;;;;;;;4.57;3.97;;;;;;;15.08;78.33;102233.44;5073189;28;20035;-37
2023/06/05 07:22:36;;;;;;;;;;;;;;;15.28;78.15;102235.94;5076901;28;20090;-36
2023/06/05 07:25:01;;;;;;;6.30;4.38;;;;;;;15.27;77.59;102236.97;5076989;28;19916;-36
2023/06/05 07:27:28;;;;;;;;;;;;;;;15.46;78.20;102226.88;5077981;28;20054;-37
2023/06/05 07:29:53;;;;;;;4.90;4.40;;;;;;;15.44;77.66;102215.38;5077644;28;19912;-37
2023/06/05 07:32:19;;;;;;;;;;;;;;;15.66;77.26;102229.34;5078150;28;20403;-36
2023/06/05 07:34:44;;;;;;;5.40;4.17;;;;;;;15.67;76.19;102228.31;5077217;28;19912;-36
2023/06/05 07:37:09;;;;;;;5.70;4.30;;;;;;;15.80;74.68;102225.38;5076755;28;20291;-36
2023/06/05 07:39:35;;;;;;;;;;;;;;;16.00;75.91;102218.78;5076981;28;20038;-36
2023/06/05 07:42:00;;;;;;;7.47;4.35;;;;;;;15.97;74.08;102217.38;5077447;28;19912;-36
2023/06/05 07:44:25;;;;;;;7.90;4.13;;;;;;;16.05;72.58;102221.66;5076844;28;20024;-37
2023/06/05 07:46:51;;;;;;;;;;;;;;;16.22;73.03;102228.09;5077933;28;20029;-36
2023/06/05 07:49:17;;;;;;;8.90;4.70;;;;;;;16.09;72.36;102222.84;5076461;28;20005;-37
2023/06/05 07:51:46;;;;;;;;;;;;;;;16.23;73.54;102233.31;5077257;28;20035;-36
2023/06/05 07:54:13;;;;;;;6.68;4.68;;;;;;;16.12;73.85;102222.41;5075690;28;20074;-36
2023/06/05 07:56:39;;;;;;;11.18;4.60;;;;;;;16.06;71.80;102229.63;5077244;28;20025;-37
2023/06/05 07:59:06;;;;;;;5.47;4.07;;;;;;;16.29;72.65;102222.53;5077052;28;20380;-36
2023/06/05 08:01:39;;;;;;;5.72;4.20;;;;;;;16.33;72.51;102226.44;5076638;28;20084;-37
2023/06/05 08:04:07;;;;;;;7.70;4.88;;;;;;;16.34;71.59;102215.28;5076523;28;20427;-36
2023/06/05 08:06:32;;;;;;;6.85;4.70;;;;;;;16.40;70.97;102213.53;5076471;28;20039;-37
2023/06/05 08:09:01;;;;;;;;;;;;;;;16.68;72.38;102219.09;5077395;28;20436;-37
2023/06/05 08:11:28;;;;;;;4.72;3.80;;;;;;;16.75;71.20;102208.09;5076357;28;19912;-36
2023/06/05 08:13:54;;;;;;;8.98;4.10;;;;;;;16.92;69.57;102219.09;5076222;28;20523;-37
2023/06/05 08:16:20;;;;;;;6.60;4.20;;;;;;;16.93;69.35;102207.09;5076351;28;20029;-36
2023/06/05 08:18:46;;;;;;;;;;;;;;;17.14;68.09;102220.13;5076884;28;20085;-37
2023/06/05 08:21:12;;;;;;;7.45;4.45;;;;;;;17.01;68.33;102205.91;5075959;28;19912;-37
2023/06/05 08:23:37;;;;;;;7.20;4.20;;;;;;;17.07;68.47;102200.28;5076312;28;20524;-36
2023/06/05 08:26:10;;;;;;;6.95;4.50;;;;;;;16.98;67.78;102199.88;5076427;28;20138;-37
2023/06/05 08:28:42;;;;;;;4.95;4.05;;;;;;;17.24;67.48;102189.44;5076573;28;20025;-37
2023/06/05 08:31:09;;;;;;;7.78;3.72;;;;;;;17.43;68.43;102196.38;5076600;28;20453;-37
2023/06/05 08:33:35;;;;;;;6.35;3.72;;;;;;;17.62;67.22;102207.13;5075410;28;20028;-37
2023/06/05 08:36:01;;;;;;;5.13;3.40;;;;;;;17.64;66.47;102192.13;5076750;28;20025;-36
2023/06/05 08:38:27;;;;;;;6.57;3.90;;;;;;;17.72;65.72;102197.22;5075568;28;20020;-36
2023/06/05 08:41:00;;;;;;;5.78;3.15;;;;;;;17.87;65.52;102198.59;5076396;28;20047;-37
2023/06/05 08:43:25;;;;;;;5.30;3.60;;;;;;;18.00;64.96;102196.34;5076109;28;20032;-36
2023/06/05 08:45:52;;;;;;;6.38;3.60;;;;;;;18.09;64.49;102185.00;5075451;28;20118;-37
2023/06/05 08:48:21;;;;;;;5.82;3.65;;;;;;;18.05;64.67;102192.03;5075294;28;20030;-37
2023/06/05 08:50:48;;;;;;;5.97;3.88;;;;;;;18.09;64.21;102187.72;5075953;28;20108;-37
2023/06/05 08:53:16;;;;;;;5.60;3.60;;;;;;;18.31;63.92;102183.16;5075519;28;20029;-37
2023/06/05 08:55:45;;;;;;;5.18;3.55;;;;;;;18.50;63.59;102189.22;5076357;28;20042;-37
2023/06/05 08:58:12;;;;;;;5.18;3.70;;;;;;;18.51;63.56;102190.84;5076026;28;20099;-37
2023/06/05 09:00:38;;;;;;;6.38;3.25;;;;;;;18.76;63.83;102187.69;5075813;28;20155;-37
2023/06/05 09:03:03;;;;;;;4.32;3.15;;;;;;;18.95;62.59;102189.03;5075309;28;20465;-37
2023/06/05 09:05:29;;;;;;;8.65;3.28;;;;;;;19.14;62.20;102178.56;5075943;28;20025;-37
2023/06/05 09:07:54;;;;;;;5.18;3.63;;;;;;;19.16;61.91;102195.59;5075247;28;20032;-37
2023/06/05 09:10:26;;;;;;;5.63;3.40;;;;;;;19.35;61.70;102189.78;5075018;28;20032;-37
2023/06/05 09:13:00;;;;;;;4.78;2.97;;;;;;;19.60;60.25;102187.31;5075165;28;20031;-37
2023/06/05 09:15:28;;;;;;;4.40;3.25;;;;;;;19.42;59.92;102177.53;5075762;28;20107;-37
2023/06/05 09:18:02;;;;;;;5.53;3.45;;;;;;;19.33;60.40;102187.31;5075956;28;20438;-37
2023/06/05 09:20:29;;;;;;;6.95;3.10;;;;;;;19.43;61.30;102168.22;5074701;28;20058;-37
2023/06/05 09:22:54;;;;;;;6.80;3.08;;;;;;;19.53;60.94;102170.22;5075044;28;20028;-37
2023/06/05 09:25:20;;;;;;;7.13;3.03;;;;;;;19.66;59.74;102169.81;5074735;28;20078;-37
2023/06/05 09:28:05;;;;;;;6.40;3.35;;;;;;;19.80;61.06;102176.53;5075444;28;20028;-37
2023/06/05 09:30:30;;;;;;;5.72;3.17;;;;;;;19.95;58.56;102153.88;5074939;28;20171;-37
2023/06/05 09:32:55;;;;;;;5.45;3.20;;;;;;;20.05;58.97;102161.38;5075144;28;20472;-37
2023/06/05 09:35:21;;;;;;;4.07;2.72;;;;;;;20.13;58.04;102147.16;5075335;28;20445;-37
2023/06/05 09:37:46;;;;;;;5.22;3.25;;;;;;;20.22;58.38;102162.06;5073829;28;20046;-37
2023/06/05 09:40:14;;;;;;;5.75;3.05;;;;;;;20.39;56.88;102161.06;5074556;28;20035;-37
2023/06/05 09:42:40;;;;;;;4.88;2.67;;;;;;;20.36;58.40;102145.97;5075216;28;20028;-37
2023/06/05 09:45:06;;;;;;;5.05;3.10;;;;;;;20.43;58.55;102157.53;5074012;28;20130;-37
2023/06/05 09:47:31;;;;;;;6.43;3.25;;;;;;;20.59;57.82;102155.72;5074895;28;20024;-37
2023/06/05 09:49:57;;;;;;;6.45;3.22;;;;;;;20.66;56.54;102150.00;5074457;28;20024;-37
2023/06/05 09:52:22;;;;;;;5.70;3.05;;;;;;;20.82;57.09;102155.28;5074756;28;20112;-37
2023/06/05 09:54:47;;;;;;;4.68;3.00;;;;;;;20.94;55.68;102152.34;5074059;28;20024;-37
2023/06/05 09:57:15;;;;;;;5.03;3.55;;;;;;;20.80;56.15;102162.16;5074605;28;20064;-37
2023/06/05 09:59:48;;;;;;;7.07;3.28;;;;;;;20.92;54.34;102159.19;5074640;28;20058;-37
2023/06/05 10:02:16;;;;;;;6.00;2.58;;;;;;;21.16;54.39;102154.88;5074276;28;20566;-37
2023/06/05 10:05:00;;;;;;;6.05;2.92;;;;;;;21.11;54.92;102141.09;5074134;28;20032;-37
2023/06/05 10:07:27;;;;;;;6.13;3.20;;;;;;;21.05;53.83;102143.00;5074187;28;20027;-37
2023/06/05 10:09:52;;;;;;;6.00;3.58;;;;;;;21.17;54.65;102145.50;5073750;28;20177;-37
2023/06/05 10:12:19;;;;;;;3.92;2.10;;;;;;;21.48;54.29;102140.13;5074936;28;20029;-37
2023/06/05 10:14:45;;;;;;;4.85;3.10;;;;;;;21.33;54.27;102147.25;5073952;28;20028;-37
2023/06/05 10:17:12;;;;;;;5.90;3.28;;;;;;;21.58;54.72;102146.47;5073992;28;20112;-37
2023/06/05 10:19:41;;;;;;;6.10;2.83;;;;;;;21.64;55.82;102133.53;5074099;28;20055;-37
2023/06/05 10:22:07;;;;;;;4.65;2.45;;;;;;;21.75;54.07;102140.69;5074223;28;20028;-37
2023/06/05 10:24:36;;;;;;;5.47;2.60;;;;;;;21.93;53.14;102124.72;5073908;28;20362;-37
2023/06/05 10:27:14;;;;;;;3.80;2.30;;;;;;;21.88;53.50;102127.47;5073828;28;20052;-37
2023/06/05 10:30:01;;;;;;;4.53;2.30;;;;;;;22.27;53.38;102130.50;5074048;28;20427;-37
2023/06/05 10:32:29;;;;;;;5.78;2.70;;;;;;;22.24;51.79;102139.31;5073567;28;20099;-37
2023/06/05 10:35:15;;;;;;;4.13;2.40;;;;;;;22.27;52.20;102123.06;5073712;28;20039;-38
2023/06/05 10:38:11;;;;;;;4.97;2.92;;;;;;;22.34;51.91;102142.88;5073673;28;20032;-37
2023/06/05 10:40:37;;;;;;;4.57;2.63;;;;;;;22.44;49.98;102130.16;5073296;28;20512;-38
2023/06/05 10:43:41;;;;;;;3.95;2.67;;;;;;;22.54;51.32;102130.97;5073446;28;20021;-37
2023/06/05 10:46:29;;;;;;;4.13;2.45;;;;;;;22.68;51.20;102127.63;5073252;28;20032;-37
2023/06/05 10:49:04;;;;;;;4.38;2.90;;;;;;;22.71;51.22;102129.81;5073248;28;20370;-37
2023/06/05 10:51:40;;;;;;;4.72;2.30;;;;;;;22.87;50.15;102123.94;5073528;28;20035;-37
2023/06/05 10:54:07;;;;;;;4.25;2.25;;;;;;;23.16;49.56;102126.03;5073198;28;20025;-37
2023/06/05 10:56:57;;;;;;;6.07;2.47;;;;;;;23.01;49.12;102123.38;5073436;28;20028;-37
2023/06/05 10:59:24;;;;;;;4.85;2.58;;;;;;;23.27;49.16;102118.50;5074012;28;20197;-37
2023/06/05 11:02:05;;;;;;;5.95;2.65;;;;;;;23.23;48.79;102122.94;5073739;28;20078;-37
2023/06/05 11:04:43;;;;;;;6.05;2.50;;;;;;;23.13;49.20;102115.56;5073403;28;20024;-37
2023/06/05 11:07:14;;;;;;;3.97;2.33;;;;;;;23.16;47.12;102114.19;5073433;28;20039;-37
2023/06/05 11:10:05;;;;;;;4.07;2.35;;;;;;;23.30;47.47;102121.53;5073066;28;20071;-37
2023/06/05 11:12:40;;;;;;;3.75;2.50;;;;;;;23.19;47.96;102110.88;5073341;28;20028;-36
2023/06/05 11:15:36;;;;;;;5.28;2.60;;;;;;;23.21;46.84;102116.91;5073301;28;20107;-38
2023/06/05 11:18:30;;;;;;;4.40;2.28;;;;;;;23.56;48.16;102102.03;5073078;28;20025;-38
2023/06/05 11:20:57;;;;;;;6.18;2.85;;;;;;;23.68;47.08;102099.75;5073428;28;20071;-38
2023/06/05 11:23:27;;;;;;;3.22;2.28;;;;;;;23.76;47.75;102090.00;5073550;28;20025;-37
2023/06/05 11:25:56;;;;;;;4.38;2.25;;;;;;;23.95;47.05;102085.41;5074031;28;20020;-37
2023/06/05 11:28:43;;;;;;;4.70;2.55;;;;;;;24.34;46.75;102089.97;5073416;28;20024;-38
2023/06/05 11:31:10;;;;;;;7.45;2.67;;;;;;;23.97;44.96;102085.13;5073462;28;20021;-38
2023/06/05 11:33:35;;;;;;;5.57;2.38;;;;;;;23.96;46.12;102084.31;5073108;28;20422;-38
2023/06/05 11:36:03;;;;;;;4.38;2.60;;;;;;;23.95;46.09;102085.41;5072894;28;20134;-37
2023/06/05 11:38:28;;;;;;;4.10;2.03;;;;;;;24.07;46.41;102074.81;5073070;28;20021;-36